createdAt,value
2022-08-11T00:01:27.863Z,18.30
2022-08-11T00:04:02.592Z,18.30
2022-08-11T00:06:31.560Z,18.20
2022-08-11T00:09:00.654Z,18.10
2022-08-11T00:11:58.772Z,18.10
2022-08-11T00:14:37.307Z,18.10
2022-08-11T00:17:14.769Z,18.00
2022-08-11T00:20:15.023Z,18.00
2022-08-11T00:22:33.614Z,18.00
2022-08-11T00:25:10.278Z,17.90
2022-08-11T00:27:39.508Z,17.90
2022-08-11T00:30:09.050Z,17.90
2022-08-11T00:32:39.158Z,17.90
2022-08-11T00:35:56.230Z,17.90
2022-08-11T00:37:59.571Z,17.80
2022-08-11T00:40:36.839Z,17.80
2022-08-11T00:43:40.201Z,17.70
2022-08-11T00:46:25.228Z,17.70
2022-08-11T00:49:34.858Z,17.60
2022-08-11T00:52:17.428Z,17.60
2022-08-11T00:55:10.259Z,17.60
2022-08-11T00:57:56.255Z,17.60
2022-08-11T01:00:27.306Z,17.60
2022-08-11T01:03:32.570Z,17.50
2022-08-11T01:06:30.429Z,17.50
2022-08-11T01:09:32.286Z,17.40
2022-08-11T01:12:29.949Z,17.30
2022-08-11T01:15:23.169Z,17.30
2022-08-11T01:18:09.007Z,17.30
2022-08-11T01:20:57.527Z,17.30
2022-08-11T01:23:44.116Z,17.30
2022-08-11T01:27:00.160Z,17.20
2022-08-11T01:29:58.246Z,17.10
2022-08-11T01:32:53.117Z,17.00
2022-08-11T01:35:35.044Z,17.00
2022-08-11T01:38:12.958Z,17.00
2022-08-11T01:41:04.588Z,17.00
2022-08-11T01:44:17.615Z,17.00
2022-08-11T01:46:52.780Z,17.00
2022-08-11T01:50:06.409Z,17.00
2022-08-11T01:52:34.598Z,16.90
2022-08-11T01:55:32.295Z,16.90
2022-08-11T01:58:20.560Z,16.80
2022-08-11T02:01:34.908Z,16.70
2022-08-11T02:04:03.324Z,16.70
2022-08-11T02:06:56.369Z,16.70
2022-08-11T02:09:51.759Z,16.70
2022-08-11T02:12:52.685Z,16.70
2022-08-11T02:15:38.302Z,16.60
2022-08-11T02:18:13.647Z,16.60
2022-08-11T02:21:26.356Z,16.60
2022-08-11T02:24:05.344Z,16.60
2022-08-11T02:26:44.447Z,16.60
2022-08-11T02:29:33.810Z,16.60
2022-08-11T02:32:39.344Z,16.50
2022-08-11T02:35:42.777Z,16.40
2022-08-11T02:38:28.106Z,16.40
2022-08-11T02:41:41.048Z,16.40
2022-08-11T02:44:44.987Z,16.40
2022-08-11T02:48:09.779Z,16.30
2022-08-11T02:51:07.528Z,16.30
2022-08-11T02:53:50.986Z,16.20
2022-08-11T02:56:37.552Z,16.20
2022-08-11T02:59:49.961Z,16.10
2022-08-11T03:02:24.665Z,16.10
2022-08-11T03:05:17.691Z,16.00
2022-08-11T03:08:06.369Z,16.00
2022-08-11T03:11:15.392Z,16.00
2022-08-11T03:14:40.047Z,16.00
2022-08-11T03:17:09.999Z,16.00
2022-08-11T03:20:05.986Z,16.00
2022-08-11T03:22:58.149Z,16.00
2022-08-11T03:25:47.874Z,16.00
2022-08-11T03:28:35.276Z,15.90
2022-08-11T03:31:08.789Z,15.90
2022-08-11T03:34:06.765Z,15.90
2022-08-11T03:37:17.347Z,15.90
2022-08-11T03:39:59.325Z,15.90
2022-08-11T03:42:35.301Z,15.80
2022-08-11T03:45:40.733Z,15.80
2022-08-11T03:48:23.029Z,15.80
2022-08-11T03:50:55.854Z,15.70
2022-08-11T03:53:31.903Z,15.70
2022-08-11T03:56:57.346Z,15.70
2022-08-11T03:59:45.693Z,15.60
2022-08-11T04:02:21.430Z,15.60
2022-08-11T04:05:04.954Z,15.70
2022-08-11T04:07:53.308Z,15.70
2022-08-11T04:10:33.068Z,15.70
2022-08-11T04:13:28.244Z,15.60
2022-08-11T04:16:16.181Z,15.60
2022-08-11T04:19:11.819Z,15.50
2022-08-11T04:22:13.000Z,15.50
2022-08-11T04:24:50.594Z,15.50
2022-08-11T04:27:44.147Z,15.50
2022-08-11T04:30:32.688Z,15.50
2022-08-11T04:32:59.910Z,15.50
2022-08-11T04:36:04.417Z,15.40
2022-08-11T04:38:50.289Z,15.40
2022-08-11T04:41:26.780Z,15.50
2022-08-11T04:44:15.599Z,15.40
2022-08-11T04:47:04.442Z,15.50
2022-08-11T04:50:42.750Z,15.50
2022-08-11T04:54:14.279Z,15.50
2022-08-11T04:57:04.978Z,15.50
2022-08-11T05:00:17.628Z,15.60
2022-08-11T05:03:11.854Z,15.60
2022-08-11T05:05:57.200Z,15.60
2022-08-11T05:08:57.851Z,15.60
2022-08-11T05:11:36.918Z,15.60
2022-08-11T05:14:31.439Z,15.60
2022-08-11T05:17:56.374Z,15.60
2022-08-11T05:20:46.258Z,15.70
2022-08-11T05:23:33.651Z,15.70
2022-08-11T05:26:46.942Z,15.70
2022-08-11T05:30:04.751Z,15.80
2022-08-11T05:33:02.286Z,15.80
2022-08-11T05:36:00.217Z,15.90
2022-08-11T05:38:52.165Z,16.00
2022-08-11T05:41:44.675Z,16.00
2022-08-11T05:44:37.749Z,16.10
2022-08-11T05:47:23.601Z,16.10
2022-08-11T05:50:13.810Z,16.20
2022-08-11T05:53:09.245Z,16.20
2022-08-11T05:56:03.469Z,16.30
2022-08-11T05:58:41.726Z,16.40
2022-08-11T06:01:10.791Z,16.40
2022-08-11T06:03:58.910Z,16.50
2022-08-11T06:06:32.491Z,16.50
2022-08-11T06:09:00.867Z,16.60
2022-08-11T06:11:44.052Z,16.70
2022-08-11T06:14:15.567Z,16.80
2022-08-11T06:16:43.362Z,16.90
2022-08-11T06:19:11.107Z,17.00
2022-08-11T06:21:38.510Z,17.10
2022-08-11T06:24:12.332Z,17.10
2022-08-11T06:27:01.703Z,17.20
2022-08-11T06:29:37.794Z,17.40
2022-08-11T06:32:15.607Z,17.40
2022-08-11T06:34:48.306Z,17.50
2022-08-11T06:37:41.080Z,17.60
2022-08-11T06:40:31.300Z,17.70
2022-08-11T06:43:05.113Z,17.90
2022-08-11T06:45:57.294Z,18.00
2022-08-11T06:48:25.217Z,18.10
2022-08-11T06:51:12.840Z,18.20
2022-08-11T06:54:03.721Z,18.30
2022-08-11T06:57:28.400Z,18.40
2022-08-11T07:00:10.634Z,18.50
2022-08-11T07:02:46.559Z,18.70
2022-08-11T07:05:27.668Z,18.90
2022-08-11T07:08:34.347Z,19.00
2022-08-11T07:11:58.477Z,19.00
2022-08-11T07:14:46.417Z,19.20
2022-08-11T07:17:31.887Z,19.40
2022-08-11T07:20:21.144Z,19.40
2022-08-11T07:23:16.778Z,19.50
2022-08-11T07:26:05.657Z,19.50
2022-08-11T07:28:55.455Z,19.50
2022-08-11T07:31:45.711Z,19.70
2022-08-11T07:34:21.956Z,19.80
2022-08-11T07:36:55.345Z,19.90
2022-08-11T07:39:28.959Z,19.90
2022-08-11T07:41:58.765Z,20.10
2022-08-11T07:44:34.455Z,20.10
2022-08-11T07:47:20.980Z,20.20
2022-08-11T07:50:09.150Z,20.20
2022-08-11T07:52:38.418Z,20.30
2022-08-11T07:55:18.090Z,20.40
2022-08-11T07:58:16.641Z,20.50
2022-08-11T08:01:21.585Z,20.60
2022-08-11T08:04:16.329Z,20.70
2022-08-11T08:07:02.882Z,20.80
2022-08-11T08:09:53.366Z,20.90
2022-08-11T08:12:43.561Z,21.00
2022-08-11T08:15:31.817Z,21.10
2022-08-11T08:18:20.743Z,21.20
2022-08-11T08:20:50.297Z,21.30
2022-08-11T08:23:33.531Z,21.40
2022-08-11T08:26:04.549Z,21.50
2022-08-11T08:28:33.594Z,21.60
2022-08-11T08:31:01.169Z,21.60
2022-08-11T08:33:30.672Z,21.70
2022-08-11T08:36:14.008Z,21.80
2022-08-11T08:38:54.100Z,21.90
2022-08-11T08:41:27.641Z,22.00
2022-08-11T08:44:20.678Z,22.00
2022-08-11T08:46:50.497Z,22.10
2022-08-11T08:49:22.739Z,22.10
2022-08-11T08:52:00.949Z,22.20
2022-08-11T08:54:46.093Z,22.20
2022-08-11T08:57:15.442Z,22.30
2022-08-11T08:59:48.512Z,22.40
2022-08-11T09:02:34.859Z,22.40
2022-08-11T09:05:04.707Z,22.50
2022-08-11T09:07:39.595Z,22.50
2022-08-11T09:10:09.883Z,22.50
2022-08-11T09:12:40.586Z,22.60
2022-08-11T09:15:10.298Z,22.60
2022-08-11T09:17:41.799Z,22.90
2022-08-11T09:20:11.668Z,23.00
2022-08-11T09:26:11.047Z,23.10
2022-08-11T09:28:38.745Z,23.10
2022-08-11T09:31:07.112Z,23.30
2022-08-11T09:33:36.276Z,23.30
2022-08-11T09:36:24.247Z,23.30
2022-08-11T09:39:11.815Z,23.30
2022-08-11T09:42:00.898Z,23.40
2022-08-11T09:44:48.864Z,23.50
2022-08-11T09:47:30.456Z,23.50
2022-08-11T09:50:02.512Z,23.50
2022-08-11T09:52:32.646Z,23.50
2022-08-11T09:55:11.119Z,23.70
2022-08-11T09:58:05.370Z,23.80
2022-08-11T10:00:37.525Z,23.80
2022-08-11T10:03:14.123Z,23.90
2022-08-11T10:06:08.223Z,23.90
2022-08-11T10:08:38.010Z,23.90
2022-08-11T10:11:09.479Z,24.00
2022-08-11T10:14:33.682Z,24.00
2022-08-11T10:16:49.382Z,24.00
2022-08-11T10:19:19.365Z,24.00
2022-08-11T10:22:11.998Z,24.00
2022-08-11T10:25:01.884Z,24.10
2022-08-11T10:28:09.040Z,24.10
2022-08-11T10:30:34.670Z,24.20
2022-08-11T10:33:36.880Z,24.20
2022-08-11T10:36:16.335Z,24.30
2022-08-11T10:38:46.922Z,24.30
2022-08-11T10:41:33.078Z,24.30
2022-08-11T10:44:03.080Z,24.40
2022-08-11T10:46:50.165Z,24.40
2022-08-11T10:49:18.825Z,24.40
2022-08-11T10:52:07.416Z,24.50
2022-08-11T10:54:54.581Z,24.50
2022-08-11T10:57:41.627Z,24.60
2022-08-11T11:00:15.154Z,24.70
2022-08-11T11:02:44.410Z,24.70
2022-08-11T11:05:32.464Z,24.80
2022-08-11T11:08:33.448Z,24.90
2022-08-11T11:11:02.655Z,24.90
2022-08-11T11:13:59.765Z,24.90
2022-08-11T11:16:50.274Z,24.90
2022-08-11T11:19:29.976Z,25.00
2022-08-11T11:22:24.991Z,25.10
2022-08-11T11:25:28.970Z,25.10
2022-08-11T11:28:27.028Z,25.10
2022-08-11T11:31:31.663Z,25.20
2022-08-11T11:34:31.174Z,25.20
2022-08-11T11:37:02.109Z,25.30
2022-08-11T11:39:44.175Z,25.30
2022-08-11T11:42:12.282Z,25.40
2022-08-11T11:44:45.879Z,25.40
2022-08-11T11:47:13.756Z,25.40
2022-08-11T11:49:49.668Z,25.40
2022-08-11T11:52:19.684Z,25.40
2022-08-11T11:54:51.448Z,25.50
2022-08-11T11:57:39.033Z,25.50
2022-08-11T12:00:33.266Z,25.50
2022-08-11T12:03:05.252Z,25.50
2022-08-11T12:05:34.704Z,25.50
2022-08-11T12:08:15.264Z,25.50
2022-08-11T12:10:47.934Z,25.60
2022-08-11T12:13:37.176Z,25.60
2022-08-11T12:16:34.770Z,25.70
2022-08-11T12:18:55.257Z,25.70
2022-08-11T12:21:24.432Z,25.70
2022-08-11T12:24:10.806Z,25.80
2022-08-11T12:27:16.113Z,25.80
2022-08-11T12:29:55.367Z,25.90
2022-08-11T12:32:26.029Z,26.00
2022-08-11T12:34:56.864Z,26.00
2022-08-11T12:37:44.589Z,26.00
2022-08-11T12:40:42.802Z,26.00
2022-08-11T12:43:46.397Z,26.00
2022-08-11T12:46:42.923Z,26.00
2022-08-11T12:49:43.250Z,26.00
2022-08-11T12:52:19.205Z,26.10
2022-08-11T12:55:07.545Z,26.10
2022-08-11T12:58:01.104Z,26.20
2022-08-11T13:00:51.596Z,26.20
2022-08-11T13:03:41.180Z,26.20
2022-08-11T13:06:08.885Z,26.30
2022-08-11T13:08:38.777Z,26.40
2022-08-11T13:11:25.760Z,26.40
2022-08-11T13:14:15.185Z,26.40
2022-08-11T13:17:02.567Z,26.40
2022-08-11T13:19:31.003Z,26.50
2022-08-11T13:21:58.684Z,26.50
2022-08-11T13:24:25.966Z,26.50
2022-08-11T13:26:53.157Z,26.40
2022-08-11T13:29:22.282Z,26.50
2022-08-11T13:31:50.422Z,26.50
2022-08-11T13:34:18.653Z,26.60
2022-08-11T13:36:50.082Z,26.60
2022-08-11T13:39:19.300Z,26.50
2022-08-11T13:41:48.585Z,26.60
2022-08-11T13:44:23.237Z,26.50
2022-08-11T13:47:19.207Z,26.50
2022-08-11T13:49:47.919Z,26.50
2022-08-11T13:52:16.600Z,26.50
2022-08-11T13:54:46.357Z,26.60
2022-08-11T13:58:08.177Z,26.60
2022-08-11T14:00:13.059Z,26.60
2022-08-11T14:02:59.976Z,26.60
2022-08-11T14:05:37.476Z,26.60
2022-08-11T14:08:32.477Z,26.70
2022-08-11T14:12:23.875Z,26.70
2022-08-11T14:14:09.539Z,26.70
2022-08-11T14:16:42.981Z,26.70
2022-08-11T14:19:14.172Z,26.70
2022-08-11T14:22:07.232Z,26.70
2022-08-11T14:24:43.312Z,26.80
2022-08-11T14:28:29.785Z,26.80
2022-08-11T14:30:02.373Z,26.80
2022-08-11T14:32:29.677Z,26.80
2022-08-11T14:34:58.784Z,26.80
2022-08-11T14:37:27.777Z,26.80
2022-08-11T14:40:03.182Z,26.90
2022-08-11T14:42:49.975Z,26.90
2022-08-11T14:45:58.206Z,26.90
2022-08-11T14:48:23.805Z,26.90
2022-08-11T14:50:51.377Z,26.90
2022-08-11T14:53:22.093Z,26.90
2022-08-11T14:56:08.497Z,27.00
2022-08-11T14:58:39.565Z,27.00
2022-08-11T15:01:27.097Z,27.00
2022-08-11T15:04:33.987Z,27.00
2022-08-11T15:06:43.153Z,26.90
2022-08-11T15:09:10.355Z,26.90
2022-08-11T15:11:56.190Z,27.00
2022-08-11T15:14:42.162Z,26.90
2022-08-11T15:17:10.283Z,26.90
2022-08-11T15:20:00.228Z,26.90
2022-08-11T15:22:46.818Z,26.90
2022-08-11T15:25:14.459Z,26.90
2022-08-11T15:28:02.757Z,27.00
2022-08-11T15:30:48.830Z,27.00
2022-08-11T15:33:36.824Z,27.00
2022-08-11T15:36:26.240Z,27.00
2022-08-11T15:39:08.264Z,27.00
2022-08-11T15:42:27.397Z,27.00
2022-08-11T15:45:34.435Z,27.00
2022-08-11T15:48:08.338Z,27.10
2022-08-11T15:50:41.565Z,27.10
2022-08-11T15:53:39.266Z,27.00
2022-08-11T15:56:12.150Z,27.00
2022-08-11T15:59:40.990Z,27.00
2022-08-11T16:02:10.007Z,27.00
2022-08-11T16:04:38.251Z,27.00
2022-08-11T16:07:11.856Z,26.90
2022-08-11T16:09:51.758Z,27.00
2022-08-11T16:12:23.470Z,27.00
2022-08-11T16:15:14.403Z,27.00
2022-08-11T16:17:59.243Z,27.00
2022-08-11T16:20:29.362Z,27.00
2022-08-11T16:23:02.560Z,27.00
2022-08-11T16:27:03.233Z,27.00
2022-08-11T16:28:23.259Z,27.00
2022-08-11T16:30:52.037Z,27.10
2022-08-11T16:33:50.278Z,27.10
2022-08-11T16:36:44.836Z,27.00
2022-08-11T16:39:18.615Z,27.10
2022-08-11T16:43:04.584Z,27.10
2022-08-11T16:45:22.294Z,27.10
2022-08-11T16:48:02.324Z,27.10
2022-08-11T16:50:30.947Z,27.00
2022-08-11T16:52:58.032Z,26.90
2022-08-11T16:55:52.112Z,27.00
2022-08-11T16:58:33.372Z,26.90
2022-08-11T17:01:02.753Z,27.00
2022-08-11T17:03:52.143Z,26.90
2022-08-11T17:06:38.859Z,26.90
2022-08-11T17:09:27.473Z,26.90
2022-08-11T17:12:16.785Z,26.90
2022-08-11T17:14:52.011Z,26.80
2022-08-11T17:17:27.646Z,26.80
2022-08-11T17:20:38.245Z,26.80
2022-08-11T17:23:13.328Z,26.80
2022-08-11T17:26:03.502Z,26.80
2022-08-11T17:28:34.287Z,26.80
2022-08-11T17:31:23.412Z,26.80
2022-08-11T17:34:11.340Z,26.70
2022-08-11T17:36:44.504Z,26.70
2022-08-11T17:39:16.712Z,26.60
2022-08-11T17:42:03.900Z,26.60
2022-08-11T17:44:51.823Z,26.50
2022-08-11T17:47:39.587Z,26.40
2022-08-11T17:50:16.681Z,26.30
2022-08-11T17:53:07.497Z,26.30
2022-08-11T17:55:55.956Z,26.30
2022-08-11T17:58:52.628Z,26.20
2022-08-11T18:01:21.160Z,26.20
2022-08-11T18:03:57.430Z,26.10
2022-08-11T18:06:34.077Z,26.10
2022-08-11T18:09:26.127Z,26.00
2022-08-11T18:12:13.739Z,26.00
2022-08-11T18:15:04.254Z,26.00
2022-08-11T18:17:51.078Z,25.90
2022-08-11T18:20:40.569Z,25.90
2022-08-11T18:23:40.697Z,25.80
2022-08-11T18:26:36.490Z,25.80
2022-08-11T18:29:25.048Z,25.70
2022-08-11T18:32:12.559Z,25.70
2022-08-11T18:35:10.734Z,25.60
2022-08-11T18:38:02.487Z,25.50
2022-08-11T18:40:50.999Z,25.50
2022-08-11T18:43:39.578Z,25.50
2022-08-11T18:46:27.698Z,25.40
2022-08-11T18:49:27.265Z,25.40
2022-08-11T18:52:35.153Z,25.30
2022-08-11T18:55:23.223Z,25.20
2022-08-11T18:58:10.271Z,25.20
2022-08-11T19:00:58.437Z,25.10
2022-08-11T19:03:48.653Z,25.00
2022-08-11T19:06:40.929Z,25.00
2022-08-11T19:09:31.762Z,24.90
2022-08-11T19:12:20.236Z,24.80
2022-08-11T19:15:09.262Z,24.70
2022-08-11T19:18:01.607Z,24.70
2022-08-11T19:20:49.672Z,24.60
2022-08-11T19:23:47.469Z,24.50
2022-08-11T19:26:43.511Z,24.50
2022-08-11T19:30:05.003Z,24.40
2022-08-11T19:32:38.822Z,24.30
2022-08-11T19:35:25.348Z,24.30
2022-08-11T19:38:11.937Z,24.10
2022-08-11T19:40:58.862Z,24.00
2022-08-11T19:43:48.119Z,24.00
2022-08-11T19:46:36.495Z,23.90
2022-08-11T19:49:23.116Z,23.90
2022-08-11T19:52:09.818Z,23.80
2022-08-11T19:54:57.140Z,23.80
2022-08-11T19:57:43.683Z,23.70
2022-08-11T20:00:36.403Z,23.70
2022-08-11T20:03:25.459Z,23.60
2022-08-11T20:06:12.457Z,23.50
2022-08-11T20:09:01.392Z,23.50
2022-08-11T20:11:59.665Z,23.40
2022-08-11T20:14:48.503Z,23.30
2022-08-11T20:17:35.183Z,23.30
2022-08-11T20:20:25.950Z,23.30
2022-08-11T20:23:15.695Z,23.20
2022-08-11T20:26:27.616Z,23.10
2022-08-11T20:29:10.574Z,23.10
2022-08-11T20:31:57.067Z,23.00
2022-08-11T20:34:43.706Z,22.80
2022-08-11T20:37:30.601Z,22.80
2022-08-11T20:40:23.774Z,22.80
2022-08-11T20:44:05.106Z,22.70
2022-08-11T20:46:16.725Z,22.60
2022-08-11T20:49:05.289Z,22.60
2022-08-11T20:51:57.057Z,22.50
2022-08-11T20:54:53.763Z,22.40
2022-08-11T20:57:59.431Z,22.40
2022-08-11T21:00:47.678Z,22.30
2022-08-11T21:03:44.880Z,22.20
2022-08-11T21:06:43.146Z,22.20
2022-08-11T21:09:58.446Z,22.10
2022-08-11T21:12:44.211Z,22.10
2022-08-11T21:15:47.005Z,22.10
2022-08-11T21:18:36.212Z,22.00
2022-08-11T21:21:28.241Z,22.00
2022-08-11T21:24:16.166Z,22.00
2022-08-11T21:27:05.502Z,21.90
2022-08-11T21:29:54.770Z,21.90
2022-08-11T21:32:42.702Z,21.80
2022-08-11T21:35:29.766Z,21.70
2022-08-11T21:38:17.086Z,21.70
2022-08-11T21:41:05.395Z,21.60
2022-08-11T21:43:52.312Z,21.60
2022-08-11T21:46:50.061Z,21.50
2022-08-11T21:49:42.865Z,21.40
2022-08-11T21:52:28.980Z,21.30
2022-08-11T21:55:20.084Z,21.30
2022-08-11T21:58:12.727Z,21.20
2022-08-11T22:01:02.717Z,21.20
2022-08-11T22:03:53.476Z,21.10
2022-08-11T22:06:41.082Z,21.00
2022-08-11T22:09:32.862Z,21.00
2022-08-11T22:12:30.024Z,20.90
2022-08-11T22:15:29.370Z,20.80
2022-08-11T22:18:20.999Z,20.70
2022-08-11T22:22:02.555Z,20.70
2022-08-11T22:24:46.271Z,20.70
2022-08-11T22:27:32.376Z,20.60
2022-08-11T22:30:18.069Z,20.60
2022-08-11T22:33:06.905Z,20.60
2022-08-11T22:35:54.420Z,20.50
2022-08-11T22:38:41.354Z,20.50
2022-08-11T22:41:27.248Z,20.50
2022-08-11T22:44:12.771Z,20.40
2022-08-11T22:47:02.364Z,20.40
2022-08-11T22:49:57.580Z,20.40
2022-08-11T22:52:48.170Z,20.40
2022-08-11T22:55:34.739Z,20.30
2022-08-11T22:58:25.232Z,20.30
2022-08-11T23:01:13.158Z,20.20
2022-08-11T23:04:02.113Z,20.20
2022-08-11T23:06:53.596Z,20.10
2022-08-11T23:09:42.451Z,20.00
2022-08-11T23:12:35.859Z,20.00
2022-08-11T23:15:22.849Z,19.90
2022-08-11T23:18:09.682Z,19.80
2022-08-11T23:20:56.223Z,19.80
2022-08-11T23:23:45.660Z,19.70
2022-08-11T23:26:35.927Z,19.70
2022-08-11T23:29:22.712Z,19.60
2022-08-11T23:32:09.981Z,19.60
2022-08-11T23:35:40.550Z,19.50
2022-08-11T23:38:13.945Z,19.50
2022-08-11T23:40:59.451Z,19.40
2022-08-11T23:43:44.877Z,19.40
2022-08-11T23:46:30.421Z,19.30
2022-08-11T23:49:20.034Z,19.30
2022-08-11T23:52:07.201Z,19.20
2022-08-11T23:54:54.291Z,19.10
2022-08-11T23:57:54.400Z,19.10
